createdAt,value
2018-04-08T00:01:41.710Z,60.30
2018-04-08T00:04:11.313Z,61.00
2018-04-08T00:06:40.158Z,60.90
2018-04-08T00:09:09.011Z,59.30
2018-04-08T00:11:38.921Z,61.60
2018-04-08T00:14:07.856Z,61.80
2018-04-08T00:16:36.666Z,61.50
2018-04-08T00:19:06.279Z,63.00
2018-04-08T00:21:35.874Z,63.70
2018-04-08T00:24:04.715Z,63.50
2018-04-08T00:26:33.546Z,64.00
2018-04-08T00:29:03.309Z,63.70
2018-04-08T00:31:32.122Z,64.50
2018-04-08T00:34:01.747Z,64.20
2018-04-08T00:36:31.354Z,64.10
2018-04-08T00:39:00.262Z,64.00
2018-04-08T00:41:29.726Z,64.30
2018-04-08T00:43:58.564Z,66.20
2018-04-08T00:46:27.405Z,66.40
2018-04-08T00:48:57.042Z,67.30
2018-04-08T00:51:25.885Z,67.20
2018-04-08T00:54:07.511Z,70.10
2018-04-08T00:56:36.340Z,69.10
2018-04-08T00:59:05.060Z,70.00
2018-04-08T01:01:33.728Z,70.60
2018-04-08T01:04:02.314Z,69.60
2018-04-08T01:06:30.918Z,69.10
2018-04-08T01:08:59.522Z,70.10
2018-04-08T01:11:28.101Z,68.70
2018-04-08T01:13:56.698Z,68.50
2018-04-08T01:16:25.307Z,67.90
2018-04-08T01:18:54.125Z,69.80
2018-04-08T01:21:22.962Z,70.00
2018-04-08T01:23:52.566Z,68.40
2018-04-08T01:26:22.181Z,69.10
2018-04-08T01:28:51.013Z,69.00
2018-04-08T01:31:19.850Z,70.10
2018-04-08T01:33:49.442Z,70.80
2018-04-08T01:36:18.287Z,70.80
2018-04-08T01:38:47.126Z,71.90
2018-04-08T01:41:15.959Z,73.10
2018-04-08T01:43:45.094Z,74.50
2018-04-08T01:46:14.374Z,75.10
2018-04-08T01:48:43.197Z,74.50
2018-04-08T01:51:12.033Z,74.10
2018-04-08T01:53:40.911Z,73.30
2018-04-08T01:56:10.654Z,73.50
2018-04-08T01:58:39.492Z,73.50
2018-04-08T02:01:08.644Z,73.60
2018-04-08T02:03:37.479Z,73.60
2018-04-08T02:06:07.075Z,73.80
2018-04-08T02:08:36.693Z,74.90
2018-04-08T02:11:06.286Z,74.40
2018-04-08T02:13:35.902Z,75.70
2018-04-08T02:16:05.503Z,76.40
2018-04-08T02:18:35.735Z,76.40
2018-04-08T02:21:05.334Z,76.60
2018-04-08T02:23:34.935Z,77.30
2018-04-08T02:26:03.778Z,77.20
2018-04-08T02:28:32.699Z,76.80
2018-04-08T02:31:02.478Z,78.10
2018-04-08T02:33:31.818Z,79.90
2018-04-08T02:36:00.656Z,79.80
2018-04-08T02:38:29.494Z,81.10
2018-04-08T02:40:59.215Z,82.00
2018-04-08T02:43:28.493Z,82.50
2018-04-08T02:45:58.090Z,82.50
2018-04-08T02:48:27.693Z,82.70
2018-04-08T02:50:57.323Z,82.30
2018-04-08T02:53:26.147Z,82.10
2018-04-08T02:55:54.982Z,81.40
2018-04-08T02:58:24.584Z,80.60
2018-04-08T03:00:54.182Z,81.90
2018-04-08T03:03:24.107Z,83.10
2018-04-08T03:05:53.787Z,83.20
2018-04-08T03:08:22.592Z,83.10
2018-04-08T03:10:51.419Z,83.90
2018-04-08T03:13:20.247Z,85.00
2018-04-08T03:15:49.086Z,86.00
2018-04-08T03:18:17.947Z,88.20
2018-04-08T03:20:46.765Z,88.40
2018-04-08T03:23:15.594Z,88.30
2018-04-08T03:25:44.426Z,87.50
2018-04-08T03:28:14.058Z,87.20
2018-04-08T03:30:42.889Z,87.10
2018-04-08T03:33:11.741Z,87.60
2018-04-08T03:35:40.629Z,88.10
2018-04-08T03:38:09.570Z,87.90
2018-04-08T03:40:39.231Z,88.20
2018-04-08T03:43:08.068Z,87.00
2018-04-08T03:45:38.418Z,88.90
2018-04-08T03:48:08.149Z,90.50
2018-04-08T03:50:37.724Z,89.60
2018-04-08T03:53:06.565Z,89.50
2018-04-08T03:55:35.396Z,90.10
2018-04-08T03:58:04.998Z,90.00
2018-04-08T04:00:33.946Z,89.80
2018-04-08T04:03:02.811Z,90.40
2018-04-08T04:05:31.661Z,89.90
2018-04-08T04:08:00.498Z,90.80
2018-04-08T04:10:29.337Z,91.30
2018-04-08T04:12:58.166Z,91.30
2018-04-08T04:15:27.334Z,91.70
2018-04-08T04:17:57.154Z,92.00
2018-04-08T04:23:43.202Z,91.90
2018-04-08T04:26:24.091Z,91.90
2018-04-08T04:28:53.683Z,93.40
2018-04-08T04:31:22.518Z,93.40
2018-04-08T04:33:51.964Z,93.50
2018-04-08T04:36:20.801Z,94.10
2018-04-08T04:38:49.614Z,94.30
2018-04-08T04:41:18.792Z,95.00
2018-04-08T04:43:47.631Z,95.50
2018-04-08T04:46:16.467Z,96.00
2018-04-08T04:48:45.292Z,95.80
2018-04-08T04:51:14.184Z,96.10
2018-04-08T04:53:42.966Z,97.00
2018-04-08T04:56:11.823Z,97.40
2018-04-08T04:58:40.680Z,97.80
2018-04-08T05:01:09.514Z,97.20
2018-04-08T05:03:38.356Z,97.80
2018-04-08T05:06:07.181Z,98.30
2018-04-08T05:08:36.034Z,99.50
2018-04-08T05:11:05.979Z,99.70
2018-04-08T05:13:35.583Z,99.90
2018-04-08T05:16:05.048Z,99.90
2018-04-08T05:18:33.891Z,99.90
2018-04-08T05:21:02.728Z,99.90
2018-04-08T05:23:31.570Z,99.90
2018-04-08T05:26:00.388Z,99.90
2018-04-08T05:28:29.958Z,99.90
2018-04-08T05:30:58.776Z,99.90
2018-04-08T05:33:27.640Z,99.90
2018-04-08T05:35:56.478Z,99.90
2018-04-08T05:38:26.847Z,99.90
2018-04-08T05:40:55.725Z,99.90
2018-04-08T05:43:26.038Z,99.90
2018-04-08T05:45:55.642Z,99.90
2018-04-08T05:48:24.662Z,99.90
2018-04-08T05:50:53.655Z,99.90
2018-04-08T05:53:22.505Z,99.00
2018-04-08T05:55:51.335Z,98.70
2018-04-08T05:58:20.166Z,97.70
2018-04-08T06:00:49.010Z,99.40
2018-04-08T06:03:17.831Z,99.60
2018-04-08T06:05:46.693Z,99.60
2018-04-08T06:08:15.631Z,99.80
2018-04-08T06:10:44.677Z,99.60
2018-04-08T06:13:13.583Z,99.90
2018-04-08T06:15:42.426Z,99.90
2018-04-08T06:18:12.021Z,99.90
2018-04-08T06:20:41.629Z,99.90
2018-04-08T06:23:10.498Z,99.90
2018-04-08T06:25:39.343Z,99.90
2018-04-08T06:28:09.078Z,99.90
2018-04-08T06:30:37.907Z,99.90
2018-04-08T06:33:07.499Z,99.90
2018-04-08T06:35:37.102Z,99.90
2018-04-08T06:38:06.704Z,99.90
2018-04-08T06:40:35.642Z,99.90
2018-04-08T06:43:04.549Z,99.60
2018-04-08T06:45:33.731Z,99.90
2018-04-08T06:48:02.590Z,99.90
2018-04-08T06:50:31.422Z,96.00
2018-04-08T06:53:00.266Z,98.40
2018-04-08T06:55:30.276Z,93.90
2018-04-08T06:57:59.897Z,92.00
2018-04-08T07:00:29.498Z,88.30
2018-04-08T07:02:58.323Z,88.40
2018-04-08T07:05:27.182Z,86.40
2018-04-08T07:07:56.774Z,87.40
2018-04-08T07:10:26.382Z,81.10
2018-04-08T07:12:56.430Z,80.70
2018-04-08T07:15:25.282Z,80.50
2018-04-08T07:17:54.943Z,79.50
2018-04-08T07:20:24.786Z,79.40
2018-04-08T07:22:53.602Z,78.40
2018-04-08T07:25:23.207Z,77.60
2018-04-08T07:27:52.809Z,75.30
2018-04-08T07:30:22.410Z,75.10
2018-04-08T07:32:52.018Z,72.10
2018-04-08T07:35:21.620Z,74.20
2018-04-08T07:37:50.458Z,74.20
2018-04-08T07:40:19.306Z,75.50
2018-04-08T07:42:48.926Z,74.40
2018-04-08T07:45:17.751Z,74.40
2018-04-08T07:47:46.582Z,73.80
2018-04-08T07:50:16.199Z,73.50
2018-04-08T07:52:45.846Z,70.30
2018-04-08T07:55:14.694Z,70.40
2018-04-08T07:57:44.289Z,71.20
2018-04-08T08:00:13.920Z,67.60
2018-04-08T08:02:43.535Z,69.70
2018-04-08T08:05:12.421Z,69.60
2018-04-08T08:07:41.276Z,69.60
2018-04-08T08:10:10.137Z,66.90
2018-04-08T08:12:38.983Z,68.20
2018-04-08T08:15:08.595Z,65.50
2018-04-08T08:17:37.419Z,65.50
2018-04-08T08:20:06.249Z,65.40
2018-04-08T08:22:35.095Z,65.60
2018-04-08T08:25:03.936Z,65.50
2018-04-08T08:27:32.778Z,64.00
2018-04-08T08:30:01.585Z,62.70
2018-04-08T08:32:30.420Z,61.50
2018-04-08T08:35:01.038Z,59.90
2018-04-08T08:37:29.874Z,59.90
2018-04-08T08:39:58.747Z,57.90
2018-04-08T08:42:27.606Z,57.30
2018-04-08T08:44:56.430Z,56.60
2018-04-08T08:47:25.290Z,56.90
2018-04-08T08:49:54.429Z,58.90
2018-04-08T08:52:23.279Z,59.00
2018-04-08T08:54:52.124Z,57.80
2018-04-08T08:57:20.951Z,58.40
2018-04-08T08:59:49.793Z,58.00
2018-04-08T09:02:18.625Z,57.00
2018-04-08T09:04:47.475Z,56.10
2018-04-08T09:07:16.330Z,56.20
2018-04-08T09:09:45.938Z,53.90
2018-04-08T09:12:15.520Z,53.80
2018-04-08T09:14:44.366Z,53.70
2018-04-08T09:17:13.496Z,51.80
2018-04-08T09:23:04.442Z,51.30
2018-04-08T09:25:52.941Z,51.10
2018-04-08T09:28:21.802Z,51.00
2018-04-08T09:30:50.654Z,49.70
2018-04-08T09:33:19.528Z,50.60
2018-04-08T09:35:49.881Z,47.60
2018-04-08T09:38:19.491Z,46.70
2018-04-08T09:40:48.367Z,46.70
2018-04-08T09:43:17.350Z,46.40
2018-04-08T09:45:47.009Z,46.20
2018-04-08T09:48:15.850Z,46.10
2018-04-08T09:50:44.782Z,44.90
2018-04-08T09:53:13.636Z,42.90
2018-04-08T09:55:42.472Z,41.30
2018-04-08T09:58:27.035Z,39.40
2018-04-08T10:01:10.792Z,37.20
2018-04-08T10:03:46.322Z,36.50
2018-04-08T10:06:15.211Z,35.80
2018-04-08T10:08:44.051Z,34.80
2018-04-08T10:11:13.670Z,35.60
2018-04-08T10:13:43.044Z,35.50
2018-04-08T10:16:11.915Z,36.20
2018-04-08T10:18:40.751Z,34.60
2018-04-08T10:21:10.374Z,35.80
2018-04-08T10:23:39.234Z,35.80
2018-04-08T10:26:08.832Z,36.30
2018-04-08T10:28:38.563Z,37.20
2018-04-08T10:31:07.404Z,37.20
2018-04-08T10:33:36.311Z,37.20
2018-04-08T10:36:05.901Z,36.60
2018-04-08T10:38:36.003Z,34.70
2018-04-08T10:41:05.630Z,35.30
2018-04-08T10:43:35.297Z,34.30
2018-04-08T10:46:04.114Z,34.30
2018-04-08T10:48:33.726Z,34.10
2018-04-08T10:51:03.392Z,32.80
2018-04-08T10:53:32.321Z,32.80
2018-04-08T10:56:01.955Z,32.80
2018-04-08T10:58:31.794Z,32.70
2018-04-08T11:01:00.985Z,33.20
2018-04-08T11:03:29.802Z,31.20
2018-04-08T11:05:59.206Z,31.70
2018-04-08T11:08:28.048Z,31.90
2018-04-08T11:10:56.921Z,33.60
2018-04-08T11:13:26.544Z,34.50
2018-04-08T11:15:55.424Z,34.40
2018-04-08T11:18:24.691Z,35.40
2018-04-08T11:20:53.553Z,35.70
2018-04-08T11:23:22.435Z,36.00
2018-04-08T11:25:51.316Z,35.40
2018-04-08T11:28:20.176Z,34.40
2018-04-08T11:30:49.038Z,34.80
2018-04-08T11:33:18.653Z,36.20
2018-04-08T11:35:47.520Z,36.20
2018-04-08T11:38:17.888Z,33.50
2018-04-08T11:40:46.705Z,33.50
2018-04-08T11:43:15.562Z,32.90
2018-04-08T11:45:44.411Z,33.40
2018-04-08T11:48:13.293Z,32.90
2018-04-08T11:50:42.157Z,32.60
2018-04-08T11:53:11.278Z,30.80
2018-04-08T11:55:40.543Z,30.50
2018-04-08T11:58:09.398Z,30.50
2018-04-08T12:00:38.260Z,30.10
2018-04-08T12:03:07.106Z,29.50
2018-04-08T12:05:35.967Z,29.70
2018-04-08T12:08:04.826Z,28.90
2018-04-08T12:10:33.676Z,29.40
2018-04-08T12:13:02.549Z,29.20
2018-04-08T12:15:31.422Z,29.40
2018-04-08T12:18:01.043Z,29.90
2018-04-08T12:20:29.910Z,29.80
2018-04-08T12:22:59.533Z,32.30
2018-04-08T12:25:28.620Z,32.20
2018-04-08T12:27:58.217Z,33.40
2018-04-08T12:30:27.829Z,34.30
2018-04-08T12:32:56.659Z,34.20
2018-04-08T12:53:34.247Z,36.10
2018-04-08T12:56:03.859Z,36.30
2018-04-08T12:58:33.491Z,37.00
2018-04-08T13:01:02.343Z,36.90
2018-04-08T13:03:32.002Z,37.10
2018-04-08T13:06:01.739Z,37.70
2018-04-08T13:08:30.646Z,37.70
2018-04-08T13:10:59.645Z,37.20
2018-04-08T13:13:28.501Z,36.70
2018-04-08T13:15:57.561Z,36.90
2018-04-08T13:18:26.448Z,36.60
2018-04-08T13:20:56.036Z,37.40
2018-04-08T13:23:25.650Z,37.30
2018-04-08T13:25:54.498Z,37.20
2018-04-08T13:28:23.371Z,37.30
2018-04-08T13:30:52.239Z,36.70
2018-04-08T13:33:21.086Z,36.40
2018-04-08T13:35:50.689Z,36.70
2018-04-08T13:38:20.367Z,37.50
2018-04-08T13:40:49.207Z,37.40
2018-04-08T13:43:18.068Z,37.40
2018-04-08T13:45:47.665Z,38.00
2018-04-08T13:48:16.538Z,38.00
2018-04-08T13:50:45.379Z,38.60
2018-04-08T13:53:14.239Z,37.40
2018-04-08T13:55:43.078Z,38.10
2018-04-08T13:58:11.929Z,38.20
2018-04-08T14:00:40.851Z,37.20
2018-04-08T14:03:09.688Z,37.80
2018-04-08T14:05:38.524Z,37.00
2018-04-08T14:08:07.372Z,37.80
2018-04-08T14:10:37.346Z,37.10
2018-04-08T14:13:06.204Z,37.10
2018-04-08T14:15:35.071Z,37.30
2018-04-08T14:18:04.681Z,37.10
2018-04-08T14:20:33.651Z,37.10
2018-04-08T14:23:02.507Z,36.70
2018-04-08T14:25:31.354Z,37.40
2018-04-08T14:28:00.971Z,37.00
2018-04-08T14:30:29.836Z,37.00
2018-04-08T14:32:58.694Z,36.10
2018-04-08T14:35:28.587Z,36.70
2018-04-08T14:37:57.432Z,36.90
2018-04-08T14:40:27.624Z,36.80
2018-04-08T14:42:56.481Z,36.70
2018-04-08T14:45:25.344Z,37.10
2018-04-08T14:47:54.968Z,37.30
2018-04-08T14:50:23.838Z,37.20
2018-04-08T14:52:52.669Z,37.30
2018-04-08T14:55:22.279Z,37.20
2018-04-08T14:57:51.106Z,37.20
2018-04-08T15:00:20.675Z,36.90
2018-04-08T15:02:49.530Z,37.70
2018-04-08T15:05:19.154Z,37.80
2018-04-08T15:07:47.978Z,37.70
2018-04-08T15:10:16.822Z,38.40
2018-04-08T15:12:46.434Z,39.00
2018-04-08T15:15:15.260Z,38.90
2018-04-08T15:17:44.121Z,37.90
2018-04-08T15:20:12.969Z,39.00
2018-04-08T15:22:42.873Z,38.40
2018-04-08T15:25:11.692Z,38.40
2018-04-08T15:27:40.819Z,39.60
2018-04-08T15:30:09.673Z,39.50
2018-04-08T15:32:38.523Z,40.00
2018-04-08T15:35:07.363Z,39.90
2018-04-08T15:37:36.983Z,40.10
2018-04-08T15:40:06.591Z,40.20
2018-04-08T15:42:35.579Z,40.20
2018-04-08T15:45:05.257Z,40.20
2018-04-08T15:47:34.923Z,40.00
2018-04-08T15:50:03.766Z,40.00
2018-04-08T15:52:33.390Z,40.50
2018-04-08T15:55:02.994Z,41.10
2018-04-08T15:57:32.619Z,40.80
2018-04-08T16:00:01.497Z,40.70
2018-04-08T16:02:31.099Z,40.10
2018-04-08T16:05:00.719Z,40.90
2018-04-08T16:07:29.552Z,40.80
2018-04-08T16:09:58.391Z,41.60
2018-04-08T16:12:27.577Z,42.20
2018-04-08T16:14:57.220Z,44.20
2018-04-08T16:17:26.068Z,44.20
2018-04-08T16:19:54.924Z,44.40
2018-04-08T16:22:24.501Z,44.30
2018-04-08T16:24:53.348Z,43.80
2018-04-08T16:27:23.034Z,44.20
2018-04-08T16:29:51.973Z,44.20
2018-04-08T16:32:20.814Z,44.70
2018-04-08T16:34:50.518Z,44.20
2018-04-08T16:37:19.363Z,43.20
2018-04-08T16:39:49.239Z,43.60
2018-04-08T16:42:18.060Z,43.50
2018-04-08T16:44:47.719Z,43.80
2018-04-08T16:47:16.575Z,43.70
2018-04-08T16:49:45.420Z,43.40
2018-04-08T16:52:14.786Z,43.60
2018-04-08T16:54:43.638Z,43.80
2018-04-08T16:57:12.508Z,44.00
2018-04-08T16:59:41.308Z,44.30
2018-04-08T17:02:10.150Z,44.20
2018-04-08T17:04:39.567Z,44.70
2018-04-08T17:07:08.428Z,45.00
2018-04-08T17:09:37.261Z,45.30
2018-04-08T17:12:06.136Z,46.50
2018-04-08T17:14:34.969Z,46.80
2018-04-08T17:17:04.572Z,46.50
2018-04-08T17:19:34.215Z,47.10
2018-04-08T17:22:03.066Z,47.10
2018-04-08T17:24:32.693Z,47.60
2018-04-08T17:27:01.527Z,47.50
2018-04-08T17:29:30.393Z,47.60
2018-04-08T17:31:59.227Z,47.40
2018-04-08T17:34:28.703Z,48.00
2018-04-08T17:36:57.546Z,48.60
2018-04-08T17:39:27.187Z,50.00
2018-04-08T17:41:56.069Z,49.90
2018-04-08T17:44:24.921Z,49.10
2018-04-08T17:46:53.761Z,49.50
2018-04-08T17:49:22.638Z,49.20
2018-04-08T17:51:51.506Z,48.80
2018-04-08T17:54:21.127Z,49.50
2018-04-08T17:56:49.981Z,49.50
2018-04-08T17:59:19.620Z,50.40
2018-04-08T18:01:48.508Z,50.30
2018-04-08T18:04:17.355Z,51.10
2018-04-08T18:06:47.743Z,52.70
2018-04-08T18:09:16.582Z,53.30
2018-04-08T18:11:46.210Z,53.80
2018-04-08T18:14:15.812Z,52.80
2018-04-08T18:16:45.421Z,53.10
2018-04-08T18:19:15.038Z,54.60
2018-04-08T18:21:44.662Z,55.30
2018-04-08T18:24:13.501Z,55.20
2018-04-08T18:26:42.380Z,56.10
2018-04-08T18:29:11.226Z,56.10
2018-04-08T18:31:40.523Z,56.70
2018-04-08T18:34:09.386Z,57.90
2018-04-08T18:36:38.277Z,58.10
2018-04-08T18:39:07.415Z,57.40
2018-04-08T18:41:36.246Z,58.10
2018-04-08T18:44:05.890Z,57.50
2018-04-08T18:46:34.752Z,57.40
2018-04-08T18:49:04.368Z,58.20
2018-04-08T18:51:33.223Z,58.10
2018-04-08T18:54:02.142Z,59.60
2018-04-08T18:56:31.750Z,61.00
2018-04-08T18:59:01.378Z,59.00
2018-04-08T19:01:30.214Z,58.90
2018-04-08T19:03:59.103Z,60.00
2018-04-08T19:06:27.968Z,60.00
2018-04-08T19:08:56.855Z,59.60
2018-04-08T19:24:25.736Z,58.90
2018-04-08T19:26:54.575Z,65.50
2018-04-08T19:29:24.216Z,67.80
2018-04-08T19:44:58.095Z,67.70
2018-04-08T19:47:27.714Z,72.50
2018-04-08T19:49:56.600Z,72.50
2018-04-08T19:52:26.108Z,74.00
2018-04-08T19:54:54.994Z,73.00
2018-04-08T19:57:24.655Z,74.70
2018-04-08T19:59:53.763Z,74.60
2018-04-08T20:02:22.975Z,77.80
2018-04-08T20:04:52.136Z,78.60
2018-04-08T20:07:21.027Z,78.40
2018-04-08T20:09:49.899Z,80.20
2018-04-08T20:12:18.757Z,84.00
2018-04-08T20:14:48.367Z,88.10
2018-04-08T20:17:18.209Z,90.10
2018-04-08T20:19:47.053Z,90.10
2018-04-08T20:22:15.895Z,91.00
2018-04-08T20:24:44.759Z,91.50
2018-04-08T20:27:13.612Z,90.60
2018-04-08T20:29:43.227Z,91.40
2018-04-08T20:32:12.872Z,91.70
2018-04-08T20:34:41.712Z,92.00
2018-04-08T20:37:10.575Z,91.80
2018-04-08T20:39:39.475Z,92.50
2018-04-08T20:42:08.331Z,91.90
2018-04-08T20:44:39.009Z,91.40
2018-04-08T20:47:08.793Z,92.20
2018-04-08T20:49:37.610Z,92.90
2018-04-08T20:52:06.463Z,93.90
2018-04-08T20:54:36.090Z,96.00
2018-04-08T20:57:05.715Z,96.70
2018-04-08T20:59:34.588Z,96.60
2018-04-08T21:02:04.186Z,97.40
2018-04-08T21:04:33.821Z,97.40
2018-04-08T21:07:02.748Z,97.40
2018-04-08T21:09:31.599Z,97.70
2018-04-08T21:12:00.905Z,98.00
2018-04-08T21:14:29.748Z,98.50
2018-04-08T21:16:59.388Z,99.30
2018-04-08T21:19:28.268Z,98.80
2018-04-08T21:21:58.792Z,99.50
2018-04-08T21:24:28.503Z,99.90
2018-04-08T21:26:57.313Z,99.90
2018-04-08T21:29:26.162Z,99.90
2018-04-08T21:31:55.779Z,99.90
2018-04-08T21:34:25.735Z,99.90
2018-04-08T21:36:55.791Z,99.90
2018-04-08T21:39:25.091Z,99.90
2018-04-08T21:41:54.739Z,99.90
2018-04-08T21:44:23.605Z,99.90
2018-04-08T21:46:53.257Z,99.90
2018-04-08T21:49:22.067Z,99.90
2018-04-08T21:51:50.929Z,99.90
2018-04-08T21:54:19.785Z,99.90
2018-04-08T21:56:48.630Z,99.90
2018-04-08T21:59:17.480Z,99.90
2018-04-08T22:01:46.348Z,99.90
2018-04-08T22:04:15.519Z,99.90
2018-04-08T22:06:45.579Z,99.90
2018-04-08T22:11:49.571Z,99.90
2018-04-08T22:14:19.189Z,99.90
2018-04-08T22:16:48.050Z,99.90
2018-04-08T22:19:16.898Z,99.90
2018-04-08T22:21:45.740Z,99.90
2018-04-08T22:24:15.346Z,99.90
2018-04-08T22:26:44.972Z,99.90
2018-04-08T22:29:14.587Z,99.90
2018-04-08T22:31:43.507Z,99.90
2018-04-08T22:34:12.355Z,99.90
2018-04-08T22:36:41.226Z,99.90
2018-04-08T22:39:10.827Z,99.90
2018-04-08T22:41:40.496Z,99.90
2018-04-08T22:44:09.309Z,99.90
2018-04-08T22:46:38.906Z,99.90
2018-04-08T22:49:07.788Z,99.90
2018-04-08T22:51:36.611Z,99.90
2018-04-08T22:54:05.616Z,99.90
2018-04-08T22:56:34.468Z,99.90
2018-04-08T22:59:03.322Z,99.90
2018-04-08T23:01:32.179Z,99.90
2018-04-08T23:04:01.024Z,99.90
2018-04-08T23:06:29.871Z,99.90
2018-04-08T23:08:58.714Z,99.90
2018-04-08T23:11:27.551Z,99.90
2018-04-08T23:13:56.398Z,99.90
2018-04-08T23:16:26.010Z,99.90
2018-04-08T23:18:54.848Z,99.90
2018-04-08T23:21:23.730Z,99.90
2018-04-08T23:23:52.583Z,99.90
2018-04-08T23:26:22.186Z,99.90
2018-04-08T23:28:51.806Z,99.90
2018-04-08T23:31:21.417Z,99.90
2018-04-08T23:33:51.034Z,99.90
2018-04-08T23:36:19.879Z,99.90
2018-04-08T23:38:48.767Z,99.90
2018-04-08T23:41:17.613Z,99.90
2018-04-08T23:43:47.226Z,99.90
2018-04-08T23:46:16.834Z,99.90
2018-04-08T23:48:45.688Z,99.90
2018-04-08T23:51:14.530Z,99.90
2018-04-08T23:53:43.635Z,99.90
2018-04-08T23:56:12.470Z,99.90
2018-04-08T23:58:41.399Z,99.90
